Time;durP1;ratioP1;P1;durP2;ratioP2;P2;SDS_P1;SDS_P2;PMS_P1;PMS_P2;Temp;Humidity;BMP_temperature;BMP_pressure;BME280_temperature;BME280_humidity;BME280_pressure;Samples;Min_cycle;Max_cycle;Signal;HPM_P1;HPM_P2
2022/05/23 00:00:36;;;;;;;7.60;3.38;;;;;;;;;;5284504;28;20028;-71
2022/05/23 00:03:07;;;;;;;9.25;3.03;;;;;;;;;;5284339;28;20055;-70
2022/05/23 00:05:39;;;;;;;8.00;3.33;;;;;;;;;;5283514;28;20281;-72
2022/05/23 00:08:10;;;;;;;9.38;3.88;;;;;;;;;;5284545;28;20024;-72
2022/05/23 00:10:42;;;;;;;8.13;3.83;;;;;;;;;;5283934;28;20067;-72
2022/05/23 00:13:13;;;;;;;10.18;3.40;;;;;;;;;;5283408;28;20058;-71
2022/05/23 00:15:44;;;;;;;9.18;3.00;;;;;;;;;;5284184;28;20274;-72
2022/05/23 00:18:15;;;;;;;10.10;4.10;;;;;;;;;;5283157;28;20013;-71
2022/05/23 00:20:47;;;;;;;8.98;3.08;;;;;;;;;;5283695;28;20275;-72
2022/05/23 00:23:18;;;;;;;8.38;3.50;;;;;;;;;;5283429;28;20090;-71
2022/05/23 00:25:49;;;;;;;7.53;3.53;;;;;;;;;;5283464;28;20274;-72
2022/05/23 00:28:21;;;;;;;7.93;3.47;;;;;;;;;;5283498;28;20039;-71
2022/05/23 00:30:52;;;;;;;10.52;3.72;;;;;;;;;;5284197;28;20050;-72
2022/05/23 00:36:12;;;;;;;9.68;3.67;;;;;;;;;;5284116;28;20028;-70
2022/05/23 00:38:46;;;;;;;12.15;3.72;;;;;;;;;;5283747;28;20360;-70
2022/05/23 00:44:14;;;;;;;7.22;3.30;;;;;;;;;;5283669;28;20384;-71
2022/05/23 00:46:49;;;;;;;7.80;3.92;;;;;;;;;;5282942;28;20020;-71
2022/05/23 00:49:22;;;;;;;9.70;4.45;;;;;;;;;;5283107;28;20032;-71
2022/05/23 00:51:54;;;;;;;10.82;4.93;;;;;;;;;;5283741;28;20606;-71
2022/05/23 00:54:28;;;;;;;7.05;3.80;;;;;;;;;;5282091;28;20107;-71
2022/05/23 00:56:59;;;;;;;6.85;4.40;;;;;;;;;;5283807;28;20513;-71
2022/05/23 00:59:32;;;;;;;8.23;4.00;;;;;;;;;;5283008;28;20028;-70
2022/05/23 01:02:03;;;;;;;10.40;4.60;;;;;;;;;;5282373;28;20024;-71
2022/05/23 01:04:35;;;;;;;7.20;4.60;;;;;;;;;;5282908;28;20487;-71
2022/05/23 01:07:06;;;;;;;8.20;4.80;;;;;;;;;;5282902;28;20028;-71
2022/05/23 01:09:38;;;;;;;10.73;4.78;;;;;;;;;;5282489;28;20021;-72
2022/05/23 01:12:10;;;;;;;8.23;4.03;;;;;;;;;;5282727;28;20044;-71
2022/05/23 01:14:46;;;;;;;9.48;4.60;;;;;;;;;;5282137;28;20085;-71
2022/05/23 01:17:17;;;;;;;7.78;4.25;;;;;;;;;;5282945;28;20425;-71
2022/05/23 01:19:49;;;;;;;9.38;4.35;;;;;;;;;;5283076;28;20024;-71
2022/05/23 01:22:40;;;;;;;9.55;4.25;;;;;;;;;;5281580;28;20136;-72
2022/05/23 01:25:17;;;;;;;9.73;4.22;;;;;;;;;;5282460;28;20021;-71
2022/05/23 01:27:49;;;;;;;11.32;5.15;;;;;;;;;;5282424;28;20420;-70
2022/05/23 01:30:21;;;;;;;15.05;4.70;;;;;;;;;;5281662;28;20098;-70
2022/05/23 01:32:52;;;;;;;12.65;4.10;;;;;;;;;;5283017;28;20024;-71
2022/05/23 01:35:23;;;;;;;7.20;3.88;;;;;;;;;;5282004;28;20475;-71
2022/05/23 01:37:54;;;;;;;9.57;4.65;;;;;;;;;;5281928;28;20020;-70
2022/05/23 01:40:25;;;;;;;9.07;4.38;;;;;;;;;;5282142;28;20013;-70
2022/05/23 01:42:57;;;;;;;12.93;4.20;;;;;;;;;;5281805;28;20091;-70
2022/05/23 01:45:31;;;;;;;8.15;4.13;;;;;;;;;;5282033;28;20044;-72
2022/05/23 01:48:04;;;;;;;6.78;4.07;;;;;;;;;;5282488;28;20056;-71
2022/05/23 01:50:35;;;;;;;9.82;4.60;;;;;;;;;;5281179;28;20012;-72
2022/05/23 01:53:06;;;;;;;10.50;4.33;;;;;;;;;;5282003;28;20028;-71
2022/05/23 01:55:37;;;;;;;8.40;3.90;;;;;;;;;;5282080;28;20626;-69
2022/05/23 01:58:09;;;;;;;9.73;5.13;;;;;;;;;;5280860;28;20602;-71
2022/05/23 02:03:30;;;;;;;9.95;4.70;;;;;;;;;;5281616;28;20371;-71
2022/05/23 02:06:02;;;;;;;10.57;4.40;;;;;;;;;;5281264;28;20115;-70
2022/05/23 02:08:33;;;;;;;8.15;4.90;;;;;;;;;;5281980;28;20095;-70
2022/05/23 02:11:05;;;;;;;10.13;4.50;;;;;;;;;;5281173;28;20008;-71
2022/05/23 02:13:39;;;;;;;9.13;4.53;;;;;;;;;;5281067;28;20278;-71
2022/05/23 02:16:10;;;;;;;9.98;4.45;;;;;;;;;;5281881;28;20047;-70
2022/05/23 02:18:41;;;;;;;8.95;4.97;;;;;;;;;;5280852;28;20017;-70
2022/05/23 02:21:12;;;;;;;10.95;4.95;;;;;;;;;;5281720;28;20066;-70
2022/05/23 02:23:44;;;;;;;10.48;4.65;;;;;;;;;;5281326;28;20412;-71
2022/05/23 02:26:15;;;;;;;8.88;4.68;;;;;;;;;;5280710;28;20024;-70
2022/05/23 02:28:46;;;;;;;12.40;4.93;;;;;;;;;;5281678;28;20380;-72
2022/05/23 02:31:17;;;;;;;9.67;4.50;;;;;;;;;;5281383;28;20020;-71
2022/05/23 02:33:48;;;;;;;10.75;5.18;;;;;;;;;;5280773;28;20306;-71
2022/05/23 02:36:20;;;;;;;10.25;5.00;;;;;;;;;;5281201;28;20029;-70
2022/05/23 02:38:51;;;;;;;12.20;5.93;;;;;;;;;;5280958;28;20028;-71
2022/05/23 02:41:22;;;;;;;10.52;4.85;;;;;;;;;;5280986;28;20111;-71
2022/05/23 02:43:53;;;;;;;7.25;4.78;;;;;;;;;;5281743;28;20672;-71
2022/05/23 02:46:25;;;;;;;13.25;5.70;;;;;;;;;;5280073;28;20024;-70
2022/05/23 02:48:56;;;;;;;11.35;4.97;;;;;;;;;;5281441;28;20063;-71
2022/05/23 02:51:28;;;;;;;11.13;4.90;;;;;;;;;;5281208;28;20025;-70
2022/05/23 02:53:59;;;;;;;11.20;5.22;;;;;;;;;;5280504;28;20025;-71
2022/05/23 02:56:31;;;;;;;11.20;6.35;;;;;;;;;;5281025;28;20482;-71
2022/05/23 02:59:02;;;;;;;12.68;5.60;;;;;;;;;;5281285;28;20024;-70
2022/05/23 03:03:01;;;;;;;10.88;5.38;;;;;;;;;;5280089;28;20086;-71
2022/05/23 03:04:24;;;;;;;10.73;5.65;;;;;;;;;;5280805;28;20029;-70
2022/05/23 03:06:57;;;;;;;10.95;5.13;;;;;;;;;;5280627;28;20360;-71
2022/05/23 03:09:30;;;;;;;9.73;6.38;;;;;;;;;;5280709;28;20266;-70
2022/05/23 03:12:01;;;;;;;11.70;5.75;;;;;;;;;;5281019;28;20066;-71
2022/05/23 03:14:32;;;;;;;8.95;5.20;;;;;;;;;;5280092;28;20471;-71
2022/05/23 03:17:04;;;;;;;9.30;5.95;;;;;;;;;;5281177;28;20040;-70
2022/05/23 03:19:36;;;;;;;10.18;5.57;;;;;;;;;;5280895;28;20029;-72
2022/05/23 03:27:52;;;;;;;9.55;5.80;;;;;;;;;;5285680;28;20115;-71
2022/05/23 03:30:23;;;;;;;9.13;6.22;;;;;;;;;;5284116;28;20432;-70
2022/05/23 03:32:54;;;;;;;14.80;6.05;;;;;;;;;;5285128;28;20583;-72
2022/05/23 03:35:27;;;;;;;9.30;6.00;;;;;;;;;;5284069;28;20491;-71
2022/05/23 03:37:58;;;;;;;11.50;6.07;;;;;;;;;;5285241;28;20032;-72
2022/05/23 03:40:30;;;;;;;11.10;5.68;;;;;;;;;;5284671;28;20023;-71
2022/05/23 03:43:01;;;;;;;9.73;5.70;;;;;;;;;;5284081;28;20025;-72
2022/05/23 03:45:33;;;;;;;11.05;6.72;;;;;;;;;;5284556;28;20016;-71
2022/05/23 03:48:05;;;;;;;11.70;6.35;;;;;;;;;;5284988;28;20024;-72
2022/05/23 03:50:36;;;;;;;11.10;5.88;;;;;;;;;;5283612;28;20093;-72
2022/05/23 03:53:08;;;;;;;11.95;6.78;;;;;;;;;;5284595;28;20016;-71
2022/05/23 03:55:39;;;;;;;10.55;6.10;;;;;;;;;;5284513;28;20032;-72
2022/05/23 03:58:10;;;;;;;10.43;5.50;;;;;;;;;;5283783;28;20039;-70
2022/05/23 04:00:43;;;;;;;11.57;6.13;;;;;;;;;;5284592;28;20754;-70
2022/05/23 04:03:16;;;;;;;9.80;6.28;;;;;;;;;;5283670;28;20356;-71
2022/05/23 04:05:47;;;;;;;12.65;6.22;;;;;;;;;;5284357;28;20025;-70
2022/05/23 04:08:18;;;;;;;9.60;5.85;;;;;;;;;;5284013;28;20047;-72
2022/05/23 04:10:49;;;;;;;13.57;5.90;;;;;;;;;;5284026;28;20053;-70
2022/05/23 04:13:21;;;;;;;13.10;6.60;;;;;;;;;;5283957;28;20048;-71
2022/05/23 04:15:52;;;;;;;8.40;6.03;;;;;;;;;;5284575;28;20024;-71
2022/05/23 04:18:23;;;;;;;9.23;5.45;;;;;;;;;;5282930;28;20332;-71
2022/05/23 04:20:56;;;;;;;13.38;6.43;;;;;;;;;;5284302;28;20383;-70
2022/05/23 04:23:28;;;;;;;12.05;6.38;;;;;;;;;;5283488;28;20116;-71
2022/05/23 04:26:00;;;;;;;9.52;6.32;;;;;;;;;;5283682;28;20048;-71
2022/05/23 04:28:31;;;;;;;12.02;6.32;;;;;;;;;;5283885;28;20263;-70
2022/05/23 04:31:02;;;;;;;8.90;5.80;;;;;;;;;;5283930;28;20090;-71
2022/05/23 04:36:23;;;;;;;10.02;5.70;;;;;;;;;;5283385;28;20259;-70
2022/05/23 04:38:55;;;;;;;10.40;6.30;;;;;;;;;;5283367;28;20013;-70
2022/05/23 04:41:26;;;;;;;9.93;5.83;;;;;;;;;;5283335;28;20737;-72
2022/05/23 04:43:57;;;;;;;7.97;5.25;;;;;;;;;;5284232;28;20356;-71
2022/05/23 04:46:28;;;;;;;12.57;6.30;;;;;;;;;;5282561;28;20012;-71
2022/05/23 04:51:49;;;;;;;8.02;4.63;;;;;;;;;;5284126;28;20028;-71
2022/05/23 04:54:21;;;;;;;9.75;5.82;;;;;;;;;;5282411;28;20036;-69
2022/05/23 04:56:52;;;;;;;8.40;4.97;;;;;;;;;;5283753;28;20278;-73
2022/05/23 04:59:23;;;;;;;9.65;5.43;;;;;;;;;;5283113;28;20025;-71
2022/05/23 05:01:54;;;;;;;8.10;3.92;;;;;;;;;;5283109;28;20450;-72
2022/05/23 05:04:25;;;;;;;7.95;5.30;;;;;;;;;;5282966;28;20027;-70
2022/05/23 05:06:56;;;;;;;6.38;4.82;;;;;;;;;;5282874;28;20263;-71
2022/05/23 05:09:28;;;;;;;7.40;4.95;;;;;;;;;;5283115;28;20349;-71
2022/05/23 05:11:59;;;;;;;10.63;5.23;;;;;;;;;;5283560;28;20012;-71
2022/05/23 05:14:30;;;;;;;8.50;4.35;;;;;;;;;;5281667;28;20294;-71
2022/05/23 05:17:02;;;;;;;10.27;4.40;;;;;;;;;;5283130;28;20017;-70
2022/05/23 05:19:33;;;;;;;9.27;4.28;;;;;;;;;;5282949;28;20024;-71
2022/05/23 05:22:04;;;;;;;8.35;4.40;;;;;;;;;;5282119;28;20049;-69
2022/05/23 05:24:36;;;;;;;7.40;4.22;;;;;;;;;;5282739;28;20353;-69
2022/05/23 05:27:07;;;;;;;9.07;4.97;;;;;;;;;;5282595;28;20276;-70
2022/05/23 05:29:38;;;;;;;8.27;4.50;;;;;;;;;;5281602;28;20024;-69
2022/05/23 05:32:26;;;;;;;10.35;5.60;;;;;;;;;;5282659;28;20271;-69
2022/05/23 05:35:02;;;;;;;7.25;4.97;;;;;;;;;;5282144;28;20065;-71
2022/05/23 05:37:36;;;;;;;9.60;5.68;;;;;;;;;;5282149;28;20061;-70
2022/05/23 05:40:07;;;;;;;8.32;5.30;;;;;;;;;;5282291;28;20367;-71
2022/05/23 05:42:42;;;;;;;7.57;5.05;;;;;;;;;;5281712;28;20032;-70
2022/05/23 05:45:18;;;;;;;8.07;4.93;;;;;;;;;;5282348;28;20490;-72
2022/05/23 05:47:50;;;;;;;8.18;5.15;;;;;;;;;;5281872;28;20498;-71
2022/05/23 05:50:25;;;;;;;9.95;4.95;;;;;;;;;;5281030;28;20063;-71
2022/05/23 05:53:00;;;;;;;7.35;5.50;;;;;;;;;;5282686;28;20412;-71
2022/05/23 05:55:31;;;;;;;7.03;5.93;;;;;;;;;;5281930;28;20078;-69
2022/05/23 05:58:03;;;;;;;9.50;5.35;;;;;;;;;;5281309;28;20016;-71
2022/05/23 06:00:34;;;;;;;9.55;5.47;;;;;;;;;;5281954;28;20033;-70
2022/05/23 06:03:05;;;;;;;10.70;5.40;;;;;;;;;;5281196;28;20020;-69
2022/05/23 06:11:23;;;;;;;9.65;5.75;;;;;;;;;;5281771;28;20362;-69
2022/05/23 06:11:24;;;;;;;7.60;5.10;;;;;;;;;;5280886;28;20476;-70
2022/05/23 06:13:56;;;;;;;9.98;5.07;;;;;;;;;;5282145;28;20387;-69
2022/05/23 06:16:28;;;;;;;8.55;5.88;;;;;;;;;;5281282;28;20024;-70
2022/05/23 06:18:59;;;;;;;7.03;5.00;;;;;;;;;;5281093;28;20020;-70
2022/05/23 06:21:31;;;;;;;9.52;5.88;;;;;;;;;;5281126;28;20031;-70
2022/05/23 06:24:02;;;;;;;10.43;5.60;;;;;;;;;;5280497;28;20323;-70
2022/05/23 06:26:33;;;;;;;9.48;5.35;;;;;;;;;;5281839;28;20033;-71
2022/05/23 06:29:04;;;;;;;8.02;5.53;;;;;;;;;;5281719;28;20044;-70
2022/05/23 06:31:35;;;;;;;9.05;5.65;;;;;;;;;;5280584;28;20047;-70
2022/05/23 06:34:06;;;;;;;12.10;5.40;;;;;;;;;;5281339;27;20051;-70
2022/05/23 06:36:38;;;;;;;9.13;4.50;;;;;;;;;;5281084;28;20486;-70
2022/05/23 06:39:09;;;;;;;11.30;4.93;;;;;;;;;;5280488;28;20193;-70
2022/05/23 06:41:40;;;;;;;9.52;5.18;;;;;;;;;;5281547;28;20468;-68
2022/05/23 06:44:11;;;;;;;6.47;5.05;;;;;;;;;;5281291;28;20031;-70
2022/05/23 06:46:42;;;;;;;6.72;4.60;;;;;;;;;;5280518;28;20020;-69
2022/05/23 06:49:13;;;;;;;6.28;5.28;;;;;;;;;;5281228;28;20052;-70
2022/05/23 06:51:49;;;;;;;9.03;5.07;;;;;;;;;;5281459;28;20399;-70
2022/05/23 06:54:20;;;;;;;8.23;4.93;;;;;;;;;;5280182;28;20512;-70
2022/05/23 06:56:52;;;;;;;8.63;4.93;;;;;;;;;;5281526;28;20221;-71
2022/05/23 06:59:23;;;;;;;5.28;4.40;;;;;;;;;;5280112;28;20016;-70
2022/05/23 07:01:54;;;;;;;6.40;3.83;;;;;;;;;;5281442;28;20070;-69
2022/05/23 07:12:19;;;;;;;7.35;4.50;;;;;;;;;;5280780;28;20017;-70
2022/05/23 07:12:57;;;;;;;9.57;2.90;;;;;;;;;;5281695;28;20020;-70
2022/05/23 07:15:35;;;;;;;6.78;3.28;;;;;;;;;;5279550;28;20028;-70
2022/05/23 07:18:08;;;;;;;6.78;2.85;;;;;;;;;;5281009;28;20009;-69
2022/05/23 07:20:39;;;;;;;6.30;3.03;;;;;;;;;;5280120;28;20497;-70
2022/05/23 07:23:11;;;;;;;5.45;2.90;;;;;;;;;;5280792;28;20041;-71
2022/05/23 07:25:42;;;;;;;6.97;3.47;;;;;;;;;;5280793;28;20016;-70
2022/05/23 07:28:14;;;;;;;4.72;3.10;;;;;;;;;;5280079;28;20028;-71
2022/05/23 07:30:45;;;;;;;7.45;3.10;;;;;;;;;;5280978;28;20376;-69
2022/05/23 07:33:16;;;;;;;7.88;2.53;;;;;;;;;;5280732;28;20074;-70
2022/05/23 07:35:58;;;;;;;7.60;2.78;;;;;;;;;;5280031;28;20067;-70
2022/05/23 07:38:29;;;;;;;7.32;3.03;;;;;;;;;;5279592;28;20012;-70
2022/05/23 07:41:00;;;;;;;5.03;2.93;;;;;;;;;;5280476;28;20044;-70
2022/05/23 07:43:35;;;;;;;4.10;2.40;;;;;;;;;;5280047;28;20613;-71
2022/05/23 07:46:12;;;;;;;7.13;3.45;;;;;;;;;;5280651;28;20780;-70
2022/05/23 07:48:48;;;;;;;6.13;2.90;;;;;;;;;;5279801;28;20414;-69
2022/05/23 07:51:20;;;;;;;5.95;2.60;;;;;;;;;;5280121;28;20029;-70
2022/05/23 08:02:21;;;;;;;6.00;2.33;;;;;;;;;;5279643;28;20044;-70
2022/05/23 08:04:53;;;;;;;10.37;2.30;;;;;;;;;;5280852;28;20349;-70
2022/05/23 08:07:28;;;;;;;6.75;2.00;;;;;;;;;;5279784;28;20316;-71
2022/05/23 08:10:00;;;;;;;6.55;1.88;;;;;;;;;;5280463;28;20051;-70
2022/05/23 08:12:31;;;;;;;5.75;1.50;;;;;;;;;;5283929;28;20025;-69
2022/05/23 08:15:04;;;;;;;10.27;2.00;;;;;;;;;;5284128;28;20387;-70
2022/05/23 08:17:35;;;;;;;7.75;1.83;;;;;;;;;;5283108;28;20746;-70
2022/05/23 08:20:06;;;;;;;7.93;2.25;;;;;;;;;;5283894;28;20054;-69
2022/05/23 08:22:38;;;;;;;6.03;1.80;;;;;;;;;;5283733;28;20043;-70
2022/05/23 08:25:09;;;;;;;4.85;1.77;;;;;;;;;;5283189;28;20037;-70
2022/05/23 08:27:40;;;;;;;5.50;1.73;;;;;;;;;;5283701;28;20020;-69
2022/05/23 08:30:12;;;;;;;10.00;1.93;;;;;;;;;;5283774;28;20037;-70
2022/05/23 08:32:43;;;;;;;4.90;2.17;;;;;;;;;;5283005;28;20737;-71
2022/05/23 08:35:14;;;;;;;5.50;2.10;;;;;;;;;;5283254;28;20130;-69
2022/05/23 08:37:45;;;;;;;8.40;1.90;;;;;;;;;;5282321;28;20858;-69
2022/05/23 08:40:17;;;;;;;6.50;1.77;;;;;;;;;;5283191;28;20729;-70
2022/05/23 08:42:51;;;;;;;8.38;2.30;;;;;;;;;;5283139;28;20114;-70
2022/05/23 08:45:27;;;;;;;4.07;1.75;;;;;;;;;;5281981;28;20051;-69
2022/05/23 08:48:01;;;;;;;6.38;2.42;;;;;;;;;;5282618;28;20058;-69
2022/05/23 08:50:52;;;;;;;10.10;2.15;;;;;;;;;;5282068;28;20032;-69
2022/05/23 08:53:25;;;;;;;4.57;2.15;;;;;;;;;;5280882;28;20040;-69
2022/05/23 08:55:59;;;;;;;7.45;2.60;;;;;;;;;;5283256;28;20363;-69
2022/05/23 08:58:34;;;;;;;7.22;1.98;;;;;;;;;;5282342;28;20013;-69
2022/05/23 09:01:09;;;;;;;6.57;2.38;;;;;;;;;;5282720;28;20016;-69
2022/05/23 09:03:44;;;;;;;7.53;1.83;;;;;;;;;;5282625;28;20025;-69
2022/05/23 09:06:20;;;;;;;6.45;2.08;;;;;;;;;;5281314;28;20028;-70
2022/05/23 09:08:52;;;;;;;7.80;1.45;;;;;;;;;;5282354;28;20055;-69
2022/05/23 09:11:28;;;;;;;6.25;2.05;;;;;;;;;;5282454;28;20078;-69
2022/05/23 09:13:59;;;;;;;7.97;2.17;;;;;;;;;;5282101;28;20031;-69
2022/05/23 09:16:40;;;;;;;7.50;1.77;;;;;;;;;;5282185;28;20024;-70
2022/05/23 09:19:17;;;;;;;9.05;2.55;;;;;;;;;;5282641;28;20021;-69
2022/05/23 09:24:54;;;;;;;7.20;1.75;;;;;;;;;;5282341;28;20041;-69
2022/05/23 09:27:36;;;;;;;5.00;2.03;;;;;;;;;;5281364;28;20024;-69
2022/05/23 09:30:09;;;;;;;10.18;2.33;;;;;;;;;;5282476;28;20021;-69
2022/05/23 09:32:40;;;;;;;8.05;2.55;;;;;;;;;;5282494;28;20088;-69
2022/05/23 09:35:17;;;;;;;6.45;1.98;;;;;;;;;;5281495;28;20128;-69
2022/05/23 09:38:03;;;;;;;8.80;2.50;;;;;;;;;;5282139;28;20020;-68
2022/05/23 09:40:36;;;;;;;4.80;1.75;;;;;;;;;;5281921;28;20033;-71
2022/05/23 09:49:14;;;;;;;7.80;2.03;;;;;;;;;;5282087;28;20064;-69
2022/05/23 09:51:54;;;;;;;6.75;2.55;;;;;;;;;;5281944;28;20468;-70
2022/05/23 09:54:25;;;;;;;8.32;2.22;;;;;;;;;;5281680;28;20086;-70
2022/05/23 09:56:59;;;;;;;9.75;2.72;;;;;;;;;;5281597;28;20460;-70
2022/05/23 09:59:36;;;;;;;5.55;2.65;;;;;;;;;;5281581;28;20037;-70
2022/05/23 10:02:21;;;;;;;5.00;2.60;;;;;;;;;;5280992;28;20016;-70
2022/05/23 10:04:52;;;;;;;7.90;1.80;;;;;;;;;;5282352;28;20028;-70
2022/05/23 10:07:37;;;;;;;7.40;2.17;;;;;;;;;;5281496;28;20024;-70
2022/05/23 10:10:34;;;;;;;5.43;2.13;;;;;;;;;;5280915;28;20060;-70
2022/05/23 10:13:24;;;;;;;6.32;2.15;;;;;;;;;;5280409;28;20128;-70
2022/05/23 10:15:57;;;;;;;5.65;1.92;;;;;;;;;;5281428;28;20032;-71
2022/05/23 10:18:30;;;;;;;6.57;1.85;;;;;;;;;;5281345;28;20063;-70
2022/05/23 10:21:18;;;;;;;8.85;2.03;;;;;;;;;;5281478;28;20021;-70
2022/05/23 10:24:07;;;;;;;5.43;2.17;;;;;;;;;;5280573;28;20040;-70
2022/05/23 10:26:42;;;;;;;5.90;1.67;;;;;;;;;;5281391;28;20502;-70
2022/05/23 10:29:26;;;;;;;4.72;1.50;;;;;;;;;;5281112;28;20029;-70
2022/05/23 10:32:06;;;;;;;7.97;2.08;;;;;;;;;;5281279;28;20091;-70
2022/05/23 10:34:39;;;;;;;4.55;2.00;;;;;;;;;;5280990;28;20025;-70
2022/05/23 10:37:24;;;;;;;9.00;1.55;;;;;;;;;;5280517;28;20153;-70
2022/05/23 10:42:47;;;;;;;4.70;1.55;;;;;;;;;;5281719;28;20420;-70
2022/05/23 10:45:21;;;;;;;4.90;1.58;;;;;;;;;;5280259;28;20020;-71
2022/05/23 10:47:57;;;;;;;4.78;2.00;;;;;;;;;;5281511;28;20403;-71
2022/05/23 10:50:28;;;;;;;7.28;1.48;;;;;;;;;;5280991;28;20025;-71
2022/05/23 10:52:59;;;;;;;5.53;1.67;;;;;;;;;;5280788;28;20417;-71
2022/05/23 10:55:31;;;;;;;4.07;1.40;;;;;;;;;;5280842;28;20058;-70
2022/05/23 10:58:28;;;;;;;4.80;1.95;;;;;;;;;;5281153;28;20081;-70
2022/05/23 11:01:00;;;;;;;4.78;1.73;;;;;;;;;;5281210;28;20008;-70
2022/05/23 11:03:37;;;;;;;6.07;2.00;;;;;;;;;;5281045;28;20476;-70
2022/05/23 11:06:26;;;;;;;10.85;2.78;;;;;;;;;;5280210;28;20271;-70
2022/05/23 11:09:05;;;;;;;3.90;1.63;;;;;;;;;;5281148;28;20086;-69
2022/05/23 11:11:49;;;;;;;6.82;1.88;;;;;;;;;;5281005;28;20074;-70
2022/05/23 11:14:28;;;;;;;17.95;1.70;;;;;;;;;;5279754;28;20039;-70
2022/05/23 11:17:06;;;;;;;7.10;1.30;;;;;;;;;;5281262;28;20416;-69
2022/05/23 11:19:39;;;;;;;4.28;0.88;;;;;;;;;;5280091;28;20119;-69
2022/05/23 11:22:19;;;;;;;11.13;1.80;;;;;;;;;;5280523;28;20150;-69
2022/05/23 11:24:53;;;;;;;45.50;4.47;;;;;;;;;;5280787;28;20049;-69
2022/05/23 11:33:48;;;;;;;8.00;1.23;;;;;;;;;;5280921;28;20032;-72
2022/05/23 11:36:24;;;;;;;6.30;0.60;;;;;;;;;;5280579;28;20039;-71
2022/05/23 11:38:55;;;;;;;3.40;0.93;;;;;;;;;;5281170;28;20033;-70
2022/05/23 11:41:31;;;;;;;4.05;0.50;;;;;;;;;;5279709;28;20544;-70
2022/05/23 11:44:13;;;;;;;3.55;0.60;;;;;;;;;;5280743;28;20028;-70
2022/05/23 11:47:04;;;;;;;2.50;0.85;;;;;;;;;;5284124;28;20459;-71
2022/05/23 11:49:40;;;;;;;3.13;0.60;;;;;;;;;;5283977;28;20024;-70
2022/05/23 11:52:16;;;;;;;4.97;0.70;;;;;;;;;;5284908;28;20008;-70
2022/05/23 11:54:47;;;;;;;7.93;0.80;;;;;;;;;;5283730;28;20455;-72
2022/05/23 11:57:30;;;;;;;2.92;0.70;;;;;;;;;;5284723;28;20044;-69
2022/05/23 12:00:02;;;;;;;2.67;0.52;;;;;;;;;;5284911;28;20016;-69
2022/05/23 12:02:36;;;;;;;4.83;0.70;;;;;;;;;;5283633;28;20099;-70
2022/05/23 12:05:12;;;;;;;3.63;0.90;;;;;;;;;;5284471;28;20021;-70
2022/05/23 12:07:44;;;;;;;3.40;0.60;;;;;;;;;;5284575;28;20459;-70
2022/05/23 12:10:25;;;;;;;2.47;1.05;;;;;;;;;;5283648;28;20031;-70
2022/05/23 12:12:57;;;;;;;4.68;0.52;;;;;;;;;;5284786;28;20021;-71
2022/05/23 12:15:47;;;;;;;3.80;0.70;;;;;;;;;;5283623;28;20391;-70
2022/05/23 12:18:21;;;;;;;2.63;0.73;;;;;;;;;;5284123;28;20021;-69
2022/05/23 12:20:53;;;;;;;4.30;0.60;;;;;;;;;;5284692;28;20020;-71
2022/05/23 12:23:42;;;;;;;5.55;0.88;;;;;;;;;;5282963;28;20053;-71
2022/05/23 12:26:13;;;;;;;8.48;1.00;;;;;;;;;;5283987;28;20013;-69
2022/05/23 12:28:56;;;;;;;9.35;0.70;;;;;;;;;;5284153;28;20036;-71
2022/05/23 12:31:29;;;;;;;4.65;0.50;;;;;;;;;;5283184;28;20490;-71
2022/05/23 12:34:03;;;;;;;3.22;0.60;;;;;;;;;;5284115;28;20034;-70
2022/05/23 12:36:37;;;;;;;1.83;0.55;;;;;;;;;;5283512;28;20028;-69
2022/05/23 12:39:14;;;;;;;2.05;0.50;;;;;;;;;;5284006;28;20043;-70
2022/05/23 12:41:51;;;;;;;2.92;0.60;;;;;;;;;;5283981;28;20024;-71
2022/05/23 12:44:31;;;;;;;2.65;0.80;;;;;;;;;;5282891;28;20194;-71
2022/05/23 12:47:21;;;;;;;3.30;0.70;;;;;;;;;;5283786;28;20489;-71
2022/05/23 12:50:05;;;;;;;3.10;0.50;;;;;;;;;;5283900;28;20047;-71
2022/05/23 12:52:39;;;;;;;2.17;0.70;;;;;;;;;;5282868;28;20067;-70
2022/05/23 12:55:13;;;;;;;3.25;0.50;;;;;;;;;;5283482;28;20028;-70
2022/05/23 12:57:47;;;;;;;4.10;0.60;;;;;;;;;;5282517;28;20020;-69
2022/05/23 13:00:20;;;;;;;3.67;0.52;;;;;;;;;;5283433;28;20032;-70
2022/05/23 13:02:57;;;;;;;4.50;0.60;;;;;;;;;;5283874;28;20078;-71
2022/05/23 13:05:35;;;;;;;3.42;0.60;;;;;;;;;;5282457;28;20066;-72
2022/05/23 13:08:19;;;;;;;5.28;0.63;;;;;;;;;;5283421;28;20024;-71
2022/05/23 13:11:04;;;;;;;2.35;0.63;;;;;;;;;;5283455;28;20031;-69
2022/05/23 13:13:37;;;;;;;6.82;0.70;;;;;;;;;;5282091;28;20017;-71
2022/05/23 13:16:16;;;;;;;6.05;0.60;;;;;;;;;;5282760;28;20028;-71
2022/05/23 13:27:25;;;;;;;4.50;0.70;;;;;;;;;;5282463;28;20025;-71
2022/05/23 13:29:58;;;;;;;4.85;1.10;;;;;;;;;;5283099;28;20021;-70
2022/05/23 13:32:29;;;;;;;5.30;0.75;;;;;;;;;;5282416;28;20524;-71
2022/05/23 13:35:01;;;;;;;5.23;0.90;;;;;;;;;;5282089;28;20033;-69
2022/05/23 13:37:36;;;;;;;4.15;1.00;;;;;;;;;;5282795;28;20286;-71
2022/05/23 13:40:09;;;;;;;4.97;1.63;;;;;;;;;;5282002;28;20017;-70
2022/05/23 13:42:41;;;;;;;5.55;1.48;;;;;;;;;;5282233;28;20041;-72
2022/05/23 13:45:14;;;;;;;4.30;1.15;;;;;;;;;;5282315;28;20021;-72
2022/05/23 13:47:57;;;;;;;6.00;1.80;;;;;;;;;;5281642;28;20059;-73
2022/05/23 13:50:32;;;;;;;4.72;1.13;;;;;;;;;;5282224;28;20032;-72
2022/05/23 13:53:06;;;;;;;6.30;1.30;;;;;;;;;;5281753;28;20052;-71
2022/05/23 13:55:41;;;;;;;7.00;2.00;;;;;;;;;;5281198;28;20037;-71
2022/05/23 13:58:15;;;;;;;6.80;1.88;;;;;;;;;;5282247;28;20534;-71
2022/05/23 14:00:49;;;;;;;5.55;1.50;;;;;;;;;;5282060;28;20039;-73
2022/05/23 14:03:35;;;;;;;5.97;2.45;;;;;;;;;;5280826;28;20338;-72
2022/05/23 14:06:10;;;;;;;7.28;1.75;;;;;;;;;;5281629;28;20067;-71
2022/05/23 14:08:43;;;;;;;8.15;1.50;;;;;;;;;;5280417;28;20040;-72
2022/05/23 14:11:19;;;;;;;4.70;0.80;;;;;;;;;;5281538;28;20025;-71
2022/05/23 14:13:52;;;;;;;5.05;1.10;;;;;;;;;;5282034;28;20029;-71
2022/05/23 14:16:23;;;;;;;8.95;1.92;;;;;;;;;;5266208;28;20135;-70
2022/05/23 14:19:03;;;;;;;4.53;1.90;;;;;;;;;;5264770;28;20160;-70
2022/05/23 14:21:36;;;;;;;6.97;2.10;;;;;;;;;;5270303;28;20024;-71
2022/05/23 14:24:18;;;;;;;9.32;2.30;;;;;;;;;;5276531;28;20098;-70
2022/05/23 14:27:03;;;;;;;6.90;2.55;;;;;;;;;;5280242;28;20435;-71
2022/05/23 14:29:34;;;;;;;5.03;2.50;;;;;;;;;;5279627;28;20501;-71
2022/05/23 14:32:13;;;;;;;5.60;2.53;;;;;;;;;;5281068;28;20052;-69
2022/05/23 14:34:44;;;;;;;;;;;;;;;;;;5282098;28;20384;-70
2022/05/23 14:37:19;;;;;;;8.02;2.67;;;;;;;;;;5280159;28;19936;-70
2022/05/23 14:39:51;;;;;;;5.93;2.80;;;;;;;;;;5281825;28;20373;-70
2022/05/23 14:42:26;;;;;;;4.93;2.80;;;;;;;;;;5280964;28;20044;-71
2022/05/23 14:45:12;;;;;;;6.18;2.45;;;;;;;;;;5280946;28;20032;-70
2022/05/23 14:48:15;;;;;;;5.13;3.38;;;;;;;;;;5280759;28;20467;-70
2022/05/23 14:51:04;;;;;;;8.13;3.42;;;;;;;;;;5275705;28;20420;-70
2022/05/23 14:57:04;;;;;;;7.05;3.83;;;;;;;;;;5281155;28;20032;-69
2022/05/23 15:02:40;;;;;;;4.90;3.33;;;;;;;;;;5281446;28;20519;-71
2022/05/23 15:05:13;;;;;;;7.63;4.45;;;;;;;;;;5280733;28;20012;-71
2022/05/23 15:07:44;;;;;;;8.25;3.72;;;;;;;;;;5281218;28;20019;-70
2022/05/23 15:10:15;;;;;;;4.63;3.67;;;;;;;;;;5280872;28;20028;-72
2022/05/23 15:12:47;;;;;;;7.73;3.90;;;;;;;;;;5267440;28;20279;-70
2022/05/23 15:15:19;;;;;;;5.82;3.88;;;;;;;;;;5267833;28;20369;-71
2022/05/23 15:17:51;;;;;;;6.97;3.70;;;;;;;;;;5280349;28;20021;-71
2022/05/23 15:20:24;;;;;;;5.55;4.28;;;;;;;;;;5281695;28;20052;-70
2022/05/23 15:22:55;;;;;;;9.40;4.90;;;;;;;;;;5284558;28;20041;-70
2022/05/23 15:25:27;;;;;;;7.07;4.90;;;;;;;;;;5283420;28;20028;-70
2022/05/23 15:27:58;;;;;;;9.02;5.57;;;;;;;;;;5284536;28;20285;-70
2022/05/23 15:30:30;;;;;;;9.27;6.22;;;;;;;;;;5284043;28;20100;-72
2022/05/23 15:33:02;;;;;;;9.38;6.78;;;;;;;;;;5283545;28;20140;-70
2022/05/23 15:35:33;;;;;;;6.90;6.15;;;;;;;;;;5283923;28;20543;-71
2022/05/23 15:38:04;;;;;;;10.93;6.97;;;;;;;;;;5284225;28;20016;-69
2022/05/23 15:40:36;;;;;;;9.07;6.95;;;;;;;;;;5283591;28;20535;-71
2022/05/23 15:43:09;;;;;;;13.48;8.65;;;;;;;;;;5284057;28;20025;-71
2022/05/23 15:45:44;;;;;;;10.45;8.13;;;;;;;;;;5284401;28;20383;-71
2022/05/23 15:48:17;;;;;;;9.25;7.53;;;;;;;;;;5284104;28;20012;-71
2022/05/23 15:50:48;;;;;;;10.45;7.70;;;;;;;;;;5285027;28;20024;-70
2022/05/23 15:53:19;;;;;;;12.90;9.50;;;;;;;;;;5284591;28;20020;-71
2022/05/23 15:55:52;;;;;;;15.13;9.90;;;;;;;;;;5284488;28;20113;-72
2022/05/23 15:58:24;;;;;;;12.27;9.30;;;;;;;;;;5284456;28;20086;-71
2022/05/23 16:00:55;;;;;;;10.75;8.40;;;;;;;;;;5284130;28;20040;-70
2022/05/23 16:03:26;;;;;;;10.43;8.13;;;;;;;;;;5284589;28;20422;-70
2022/05/23 16:05:57;;;;;;;11.85;8.57;;;;;;;;;;5285006;28;20021;-69
2022/05/23 16:08:29;;;;;;;12.27;8.98;;;;;;;;;;5283540;28;20486;-69
2022/05/23 16:11:16;;;;;;;12.43;9.30;;;;;;;;;;5284306;28;20033;-70
2022/05/23 16:13:47;;;;;;;11.27;9.88;;;;;;;;;;5284568;28;20107;-69
2022/05/23 16:16:20;;;;;;;11.65;9.25;;;;;;;;;;5283552;28;20111;-69
2022/05/23 16:18:53;;;;;;;10.60;9.43;;;;;;;;;;5284766;28;20016;-69
2022/05/23 16:21:26;;;;;;;11.82;8.43;;;;;;;;;;5283873;28;20029;-69
2022/05/23 16:23:59;;;;;;;9.63;8.57;;;;;;;;;;5283818;28;20040;-69
2022/05/23 16:26:30;;;;;;;11.65;10.07;;;;;;;;;;5284062;28;20416;-69
2022/05/23 16:29:02;;;;;;;11.60;10.00;;;;;;;;;;5283678;28;20024;-69
2022/05/23 16:31:34;;;;;;;10.00;8.98;;;;;;;;;;5283353;28;20281;-69